createdAt,value
2023-06-04T00:02:07.893Z,58.12
2023-06-04T00:04:34.491Z,58.42
2023-06-04T00:07:00.942Z,57.74
2023-06-04T00:09:27.337Z,58.09
2023-06-04T00:11:53.789Z,57.88
2023-06-04T00:14:20.400Z,58.32
2023-06-04T00:16:46.896Z,57.89
2023-06-04T00:19:13.552Z,58.55
2023-06-04T00:21:40.047Z,58.47
2023-06-04T00:24:06.933Z,58.09
2023-06-04T00:26:34.976Z,58.17
2023-06-04T00:29:01.780Z,58.01
2023-06-04T00:31:28.318Z,58.46
2023-06-04T00:33:54.787Z,58.92
2023-06-04T00:36:21.293Z,58.92
2023-06-04T00:38:47.683Z,58.82
2023-06-04T00:41:14.147Z,58.95
2023-06-04T00:43:40.636Z,59.57
2023-06-04T00:46:07.678Z,59.18
2023-06-04T00:48:34.223Z,58.73
2023-06-04T00:51:01.379Z,58.97
2023-06-04T00:53:28.081Z,59.07
2023-06-04T00:55:54.597Z,59.34
2023-06-04T00:58:21.428Z,59.16
2023-06-04T01:00:48.374Z,59.58
2023-06-04T01:03:18.666Z,59.60
2023-06-04T01:05:52.337Z,59.71
2023-06-04T01:08:19.565Z,59.29
2023-06-04T01:10:56.610Z,58.89
2023-06-04T01:13:23.748Z,59.60
2023-06-04T01:15:51.330Z,59.44
2023-06-04T01:18:31.684Z,59.55
2023-06-04T01:21:05.839Z,59.09
2023-06-04T01:23:40.294Z,59.63
2023-06-04T01:26:07.344Z,59.55
2023-06-04T01:28:35.947Z,59.93
2023-06-04T01:31:03.921Z,60.34
2023-06-04T01:33:30.524Z,60.70
2023-06-04T01:35:57.310Z,60.58
2023-06-04T01:38:23.943Z,60.39
2023-06-04T01:40:51.712Z,60.77
2023-06-04T01:43:18.169Z,61.23
2023-06-04T01:45:44.608Z,61.22
2023-06-04T01:48:11.091Z,61.42
2023-06-04T01:50:37.531Z,61.18
2023-06-04T01:53:04.504Z,61.73
2023-06-04T01:55:34.287Z,62.01
2023-06-04T01:58:01.953Z,62.22
2023-06-04T02:00:28.671Z,62.17
2023-06-04T02:02:57.198Z,62.92
2023-06-04T02:05:23.928Z,63.16
2023-06-04T02:07:50.508Z,63.06
2023-06-04T02:10:18.718Z,63.41
2023-06-04T02:13:04.348Z,62.99
2023-06-04T02:15:32.554Z,63.30
2023-06-04T02:18:17.077Z,63.17
2023-06-04T02:20:48.292Z,63.44
2023-06-04T02:23:16.925Z,63.43
2023-06-04T02:25:45.671Z,63.41
2023-06-04T02:28:12.960Z,63.51
2023-06-04T02:30:39.644Z,63.96
2023-06-04T02:33:07.070Z,63.86
2023-06-04T02:35:33.627Z,63.65
2023-06-04T02:38:00.224Z,63.64
2023-06-04T02:40:26.789Z,64.09
2023-06-04T02:42:54.284Z,64.59
2023-06-04T02:45:21.281Z,64.71
2023-06-04T02:47:47.988Z,64.99
2023-06-04T02:50:15.716Z,65.38
2023-06-04T02:52:44.168Z,65.05
2023-06-04T02:55:13.027Z,65.24
2023-06-04T02:57:43.710Z,64.82
2023-06-04T03:00:15.304Z,64.40
2023-06-04T03:02:47.358Z,64.53
2023-06-04T03:05:16.356Z,64.78
2023-06-04T03:07:45.453Z,64.76
2023-06-04T03:10:13.487Z,65.35
2023-06-04T03:12:40.393Z,65.27
2023-06-04T03:15:08.632Z,65.29
2023-06-04T03:17:35.094Z,65.56
2023-06-04T03:20:02.598Z,65.73
2023-06-04T03:22:29.476Z,65.82
2023-06-04T03:24:56.135Z,65.50
2023-06-04T03:27:22.969Z,65.54
2023-06-04T03:29:49.510Z,65.56
2023-06-04T03:32:17.189Z,65.99
2023-06-04T03:34:44.387Z,65.63
2023-06-04T03:37:11.218Z,65.72
2023-06-04T03:39:37.649Z,65.89
2023-06-04T03:42:04.399Z,65.93
2023-06-04T03:44:30.952Z,65.90
2023-06-04T03:46:57.455Z,66.01
2023-06-04T03:49:24.015Z,66.27
2023-06-04T03:51:50.937Z,66.30
2023-06-04T03:54:20.316Z,66.52
2023-06-04T03:56:47.679Z,66.24
2023-06-04T03:59:15.036Z,65.53
2023-06-04T04:01:41.551Z,66.33
2023-06-04T04:04:08.106Z,66.33
2023-06-04T04:06:34.834Z,66.82
2023-06-04T04:09:03.309Z,66.66
2023-06-04T04:11:29.800Z,66.97
2023-06-04T04:13:57.996Z,66.88
2023-06-04T04:16:24.915Z,66.87
2023-06-04T04:18:51.284Z,67.75
2023-06-04T04:21:18.021Z,67.59
2023-06-04T04:23:46.560Z,68.30
2023-06-04T04:26:17.455Z,68.36
2023-06-04T04:28:44.956Z,68.26
2023-06-04T04:31:11.697Z,68.85
2023-06-04T04:33:40.480Z,68.35
2023-06-04T04:36:13.797Z,68.74
2023-06-04T04:38:41.129Z,67.43
2023-06-04T04:41:08.667Z,67.77
2023-06-04T04:43:37.422Z,67.99
2023-06-04T04:46:06.258Z,68.45
2023-06-04T04:48:33.014Z,69.38
2023-06-04T04:50:59.780Z,68.92
2023-06-04T04:53:27.518Z,68.87
2023-06-04T04:55:55.373Z,68.46
2023-06-04T04:58:21.844Z,68.91
2023-06-04T05:00:49.024Z,69.14
2023-06-04T05:03:16.323Z,69.33
2023-06-04T05:05:43.342Z,69.13
2023-06-04T05:08:10.050Z,68.56
2023-06-04T05:10:37.180Z,68.72
2023-06-04T05:13:05.944Z,69.96
2023-06-04T05:15:32.754Z,69.42
2023-06-04T05:18:01.791Z,68.93
2023-06-04T05:20:28.542Z,69.67
2023-06-04T05:22:56.265Z,69.34
2023-06-04T05:25:23.053Z,69.48
2023-06-04T05:27:50.216Z,69.30
2023-06-04T05:30:17.588Z,68.97
2023-06-04T05:32:44.018Z,68.51
2023-06-04T05:35:10.888Z,68.87
2023-06-04T05:37:41.456Z,68.45
2023-06-04T05:40:08.868Z,69.12
2023-06-04T05:42:35.591Z,69.03
2023-06-04T05:45:02.327Z,69.74
2023-06-04T05:47:32.815Z,68.60
2023-06-04T05:49:59.369Z,68.72
2023-06-04T05:52:27.141Z,68.53
2023-06-04T05:54:53.726Z,68.64
2023-06-04T05:57:21.916Z,68.84
2023-06-04T05:59:48.574Z,68.26
2023-06-04T06:02:15.806Z,67.70
2023-06-04T06:04:42.507Z,67.22
2023-06-04T06:07:09.289Z,67.96
2023-06-04T06:09:36.723Z,66.92
2023-06-04T06:12:03.889Z,66.57
2023-06-04T06:14:30.418Z,67.08
2023-06-04T06:16:57.448Z,67.99
2023-06-04T06:19:23.907Z,67.74
2023-06-04T06:21:50.383Z,66.73
2023-06-04T06:24:16.866Z,66.11
2023-06-04T06:26:43.749Z,65.52
2023-06-04T06:29:10.198Z,64.80
2023-06-04T06:31:36.912Z,64.66
2023-06-04T06:34:06.818Z,64.07
2023-06-04T06:36:34.937Z,64.28
2023-06-04T06:39:01.505Z,63.98
2023-06-04T06:41:28.036Z,62.12
2023-06-04T06:43:54.513Z,61.95
2023-06-04T06:46:21.318Z,61.93
2023-06-04T06:48:49.205Z,61.37
2023-06-04T06:51:15.628Z,60.98
2023-06-04T06:53:42.746Z,60.46
2023-06-04T06:56:10.372Z,61.52
2023-06-04T06:58:36.935Z,60.31
2023-06-04T07:01:03.944Z,60.45
2023-06-04T07:03:31.290Z,59.07
2023-06-04T07:05:57.915Z,58.27
2023-06-04T07:08:24.588Z,58.38
2023-06-04T07:10:50.996Z,58.71
2023-06-04T07:13:18.700Z,58.14
2023-06-04T07:15:45.193Z,58.68
2023-06-04T07:18:11.775Z,56.89
2023-06-04T07:20:38.565Z,57.12
2023-06-04T07:23:04.944Z,57.33
2023-06-04T07:25:31.384Z,56.12
2023-06-04T07:27:59.091Z,55.55
2023-06-04T07:30:26.843Z,55.48
2023-06-04T07:32:54.715Z,55.72
2023-06-04T07:35:21.416Z,55.31
2023-06-04T07:37:49.890Z,54.12
2023-06-04T07:40:17.752Z,52.67
2023-06-04T07:42:45.645Z,52.12
2023-06-04T07:45:12.035Z,52.77
2023-06-04T07:47:38.551Z,51.05
2023-06-04T07:50:06.671Z,51.45
2023-06-04T07:52:33.676Z,50.83
2023-06-04T07:55:00.817Z,51.25
2023-06-04T07:57:27.220Z,51.87
2023-06-04T07:59:53.742Z,52.44
2023-06-04T08:02:20.176Z,51.05
2023-06-04T08:04:50.107Z,49.32
2023-06-04T08:07:16.613Z,50.39
2023-06-04T08:09:45.058Z,50.78
2023-06-04T08:12:11.497Z,49.85
2023-06-04T08:14:38.120Z,49.54
2023-06-04T08:17:04.818Z,47.63
2023-06-04T08:19:31.353Z,47.62
2023-06-04T08:21:57.851Z,48.00
2023-06-04T08:24:24.382Z,47.96
2023-06-04T08:26:51.380Z,48.86
2023-06-04T08:29:17.831Z,48.33
2023-06-04T08:31:44.365Z,48.23
2023-06-04T08:34:10.909Z,47.42
2023-06-04T08:36:37.382Z,47.28
2023-06-04T08:39:04.069Z,46.83
2023-06-04T08:41:45.829Z,47.33
2023-06-04T08:44:12.915Z,45.83
2023-06-04T08:46:41.742Z,46.43
2023-06-04T08:49:09.522Z,45.49
2023-06-04T08:51:41.759Z,45.38
2023-06-04T08:54:09.751Z,44.90
2023-06-04T08:56:37.271Z,45.28
2023-06-04T08:59:06.220Z,44.08
2023-06-04T09:01:33.473Z,43.70
2023-06-04T09:04:06.245Z,43.35
2023-06-04T09:06:36.959Z,44.30
2023-06-04T09:09:08.327Z,43.55
2023-06-04T09:11:38.287Z,44.24
2023-06-04T09:14:14.963Z,43.39
2023-06-04T09:16:48.612Z,42.84
2023-06-04T09:19:16.224Z,42.01
2023-06-04T09:21:49.706Z,41.74
2023-06-04T09:24:16.397Z,41.52
2023-06-04T09:26:42.789Z,41.19
2023-06-04T09:29:09.316Z,42.49
2023-06-04T09:31:38.222Z,41.41
2023-06-04T09:34:04.993Z,40.77
2023-06-04T09:36:32.088Z,42.51
2023-06-04T09:38:58.622Z,40.79
2023-06-04T09:41:27.246Z,40.84
2023-06-04T09:44:04.484Z,41.53
2023-06-04T09:46:31.964Z,40.17
2023-06-04T09:51:32.079Z,40.03
2023-06-04T09:54:03.209Z,39.88
2023-06-04T09:56:30.321Z,38.10
2023-06-04T09:59:03.769Z,38.96
2023-06-04T10:01:31.387Z,39.40
2023-06-04T10:04:03.479Z,37.91
2023-06-04T10:06:35.120Z,37.42
2023-06-04T10:09:06.266Z,38.61
2023-06-04T10:11:41.002Z,37.34
2023-06-04T10:14:20.751Z,36.71
2023-06-04T10:16:49.159Z,37.31
2023-06-04T10:19:17.295Z,38.15
2023-06-04T10:21:44.594Z,35.44
2023-06-04T10:24:13.943Z,35.38
2023-06-04T10:26:41.746Z,36.80
2023-06-04T10:29:09.443Z,36.13
2023-06-04T10:31:38.064Z,34.60
2023-06-04T10:34:04.784Z,34.75
2023-06-04T10:36:31.453Z,34.89
2023-06-04T10:38:57.929Z,34.88
2023-06-04T10:41:25.094Z,35.44
2023-06-04T10:43:53.443Z,36.00
2023-06-04T10:46:21.332Z,35.12
2023-06-04T10:48:54.420Z,35.04
2023-06-04T10:51:34.289Z,35.41
2023-06-04T10:54:02.254Z,35.85
2023-06-04T10:56:29.918Z,34.51
2023-06-04T10:58:56.999Z,34.32
2023-06-04T11:01:31.650Z,35.90
2023-06-04T11:03:58.535Z,34.29
2023-06-04T11:06:28.758Z,34.33
2023-06-04T11:09:06.656Z,35.70
2023-06-04T11:11:33.416Z,33.75
2023-06-04T11:14:10.217Z,34.92
2023-06-04T11:16:36.696Z,33.91
2023-06-04T11:19:03.439Z,34.29
2023-06-04T11:21:30.255Z,34.77
2023-06-04T11:23:59.352Z,34.92
2023-06-04T11:26:37.321Z,34.79
2023-06-04T11:29:12.257Z,34.59
2023-06-04T11:31:46.490Z,34.38
2023-06-04T11:34:26.590Z,34.69
2023-06-04T11:36:56.032Z,33.83
2023-06-04T11:39:23.564Z,33.74
2023-06-04T11:41:52.043Z,33.21
2023-06-04T11:44:21.524Z,33.72
2023-06-04T11:46:49.703Z,34.27
2023-06-04T11:49:17.047Z,33.84
2023-06-04T11:51:49.360Z,34.08
2023-06-04T11:54:17.625Z,34.12
2023-06-04T11:56:47.734Z,32.85
2023-06-04T11:59:15.994Z,33.02
2023-06-04T12:01:43.946Z,32.00
2023-06-04T12:04:18.245Z,32.71
2023-06-04T12:06:58.935Z,32.36
2023-06-04T12:09:28.392Z,32.53
2023-06-04T12:12:02.668Z,33.48
2023-06-04T12:14:30.058Z,32.71
2023-06-04T12:16:59.938Z,32.39
2023-06-04T12:19:27.412Z,34.95
2023-06-04T12:22:08.138Z,35.13
2023-06-04T12:24:46.827Z,32.45
2023-06-04T12:27:13.292Z,34.21
2023-06-04T12:29:39.719Z,32.44
2023-06-04T12:32:14.473Z,32.15
2023-06-04T12:34:41.978Z,33.21
2023-06-04T12:37:09.150Z,33.16
2023-06-04T12:39:37.704Z,31.16
2023-06-04T12:42:06.155Z,31.70
2023-06-04T12:44:35.287Z,31.34
2023-06-04T12:47:02.342Z,31.97
2023-06-04T12:49:28.844Z,32.83
2023-06-04T12:51:55.183Z,33.31
2023-06-04T12:54:21.630Z,32.96
2023-06-04T12:56:48.152Z,32.70
2023-06-04T12:59:14.587Z,33.55
2023-06-04T13:01:42.037Z,33.59
2023-06-04T13:04:08.708Z,33.06
2023-06-04T13:06:36.605Z,33.50
2023-06-04T13:09:04.898Z,32.78
2023-06-04T13:11:31.449Z,32.18
2023-06-04T13:13:57.933Z,32.71
2023-06-04T13:16:24.447Z,31.00
2023-06-04T13:18:51.126Z,31.14
2023-06-04T13:21:17.565Z,32.50
2023-06-04T13:23:50.584Z,31.09
2023-06-04T13:26:18.789Z,32.52
2023-06-04T13:28:45.434Z,32.93
2023-06-04T13:31:12.205Z,33.46
2023-06-04T13:33:38.504Z,34.82
2023-06-04T13:36:05.624Z,35.59
2023-06-04T13:38:33.012Z,35.49
2023-06-04T13:40:59.855Z,36.05
2023-06-04T13:43:26.442Z,37.21
2023-06-04T13:45:52.929Z,36.09
2023-06-04T13:48:19.551Z,36.96
2023-06-04T13:50:46.178Z,37.14
2023-06-04T13:53:14.134Z,36.46
2023-06-04T13:55:40.728Z,37.51
2023-06-04T13:58:07.324Z,36.02
2023-06-04T14:00:35.184Z,36.49
2023-06-04T14:03:01.973Z,36.39
2023-06-04T14:05:28.939Z,36.83
2023-06-04T14:07:55.810Z,36.44
2023-06-04T14:10:22.300Z,36.80
2023-06-04T14:12:48.676Z,37.10
2023-06-04T14:15:15.278Z,37.16
2023-06-04T14:17:42.043Z,36.13
2023-06-04T14:20:09.671Z,38.03
2023-06-04T14:22:37.217Z,37.16
2023-06-04T14:25:04.943Z,36.80
2023-06-04T14:27:32.652Z,37.50
2023-06-04T14:29:59.090Z,37.26
2023-06-04T14:32:25.592Z,37.76
2023-06-04T14:34:52.273Z,36.75
2023-06-04T14:37:20.614Z,38.12
2023-06-04T14:39:47.134Z,37.26
2023-06-04T14:42:14.065Z,37.78
2023-06-04T14:44:40.829Z,38.33
2023-06-04T14:47:07.280Z,38.24
2023-06-04T14:49:33.861Z,38.03
2023-06-04T14:52:01.569Z,38.26
2023-06-04T14:54:28.104Z,38.74
2023-06-04T14:56:54.497Z,38.03
2023-06-04T14:59:20.946Z,39.10
2023-06-04T15:01:47.765Z,37.88
2023-06-04T15:04:14.284Z,38.09
2023-06-04T15:06:40.848Z,38.26
2023-06-04T15:09:07.484Z,38.88
2023-06-04T15:11:34.891Z,38.90
2023-06-04T15:14:02.918Z,38.68
2023-06-04T15:16:29.414Z,39.21
2023-06-04T15:18:57.982Z,39.55
2023-06-04T15:21:24.736Z,39.73
2023-06-04T15:23:51.128Z,39.27
2023-06-04T15:26:18.056Z,40.03
2023-06-04T15:28:44.611Z,38.96
2023-06-04T15:31:11.397Z,40.17
2023-06-04T15:33:38.082Z,39.42
2023-06-04T15:36:04.771Z,39.16
2023-06-04T15:38:32.083Z,39.95
2023-06-04T15:40:58.592Z,39.67
2023-06-04T15:43:24.987Z,40.71
2023-06-04T15:45:51.508Z,40.70
2023-06-04T15:48:18.042Z,39.86
2023-06-04T15:50:44.527Z,40.73
2023-06-04T15:53:11.009Z,40.67
2023-06-04T15:55:37.512Z,41.06
2023-06-04T15:58:03.916Z,41.31
2023-06-04T16:00:30.305Z,41.28
2023-06-04T16:02:56.754Z,41.35
2023-06-04T16:05:23.263Z,40.97
2023-06-04T16:07:49.671Z,41.93
2023-06-04T16:10:16.146Z,41.66
2023-06-04T16:12:42.585Z,42.54
2023-06-04T16:15:09.349Z,41.66
2023-06-04T16:17:35.842Z,42.09
2023-06-04T16:20:03.952Z,42.96
2023-06-04T16:22:30.490Z,42.64
2023-06-04T16:24:57.031Z,42.82
2023-06-04T16:27:23.561Z,42.62
2023-06-04T16:29:49.978Z,43.30
2023-06-04T16:32:16.444Z,43.36
2023-06-04T16:34:42.996Z,43.72
2023-06-04T16:37:09.440Z,44.23
2023-06-04T16:39:35.980Z,44.11
2023-06-04T16:42:04.050Z,45.01
2023-06-04T16:44:30.596Z,44.03
2023-06-04T16:46:57.143Z,44.54
2023-06-04T16:49:23.608Z,44.24
2023-06-04T16:51:50.050Z,44.68
2023-06-04T16:54:16.583Z,44.28
2023-06-04T16:56:43.130Z,44.60
2023-06-04T16:59:09.574Z,44.88
2023-06-04T17:01:38.020Z,43.80
2023-06-04T17:04:05.390Z,44.58
2023-06-04T17:06:32.290Z,43.59
2023-06-04T17:08:58.656Z,44.08
2023-06-04T17:11:25.030Z,44.55
2023-06-04T17:13:51.475Z,44.18
2023-06-04T17:16:17.921Z,44.66
2023-06-04T17:18:44.403Z,44.82
2023-06-04T17:21:11.033Z,45.26
2023-06-04T17:23:39.184Z,45.57
2023-06-04T17:26:07.570Z,45.54
2023-06-04T17:28:34.246Z,45.63
2023-06-04T17:31:00.840Z,46.33
2023-06-04T17:33:27.326Z,46.16
2023-06-04T17:35:53.852Z,46.78
2023-06-04T17:38:20.290Z,46.76
2023-06-04T17:40:46.697Z,47.08
2023-06-04T17:43:13.205Z,47.02
2023-06-04T17:45:40.463Z,47.15
2023-06-04T17:48:06.965Z,47.59
2023-06-04T17:50:33.384Z,48.21
2023-06-04T17:53:00.407Z,48.46
2023-06-04T17:55:26.919Z,47.54
2023-06-04T17:57:56.423Z,48.63
2023-06-04T18:00:22.956Z,48.81
2023-06-04T18:02:49.401Z,48.40
2023-06-04T18:05:16.028Z,48.48
2023-06-04T18:07:42.450Z,48.74
2023-06-04T18:10:09.331Z,48.64
2023-06-04T18:12:36.491Z,48.71
2023-06-04T18:15:03.705Z,48.77
2023-06-04T18:17:30.293Z,49.03
2023-06-04T18:19:56.754Z,49.41
2023-06-04T18:22:23.376Z,49.32
2023-06-04T18:24:51.126Z,49.77
2023-06-04T18:27:18.920Z,50.37
2023-06-04T18:29:46.797Z,50.25
2023-06-04T18:32:13.397Z,50.90
2023-06-04T18:34:39.838Z,51.03
2023-06-04T18:37:07.040Z,50.99
2023-06-04T18:39:33.484Z,50.73
2023-06-04T18:42:01.693Z,51.64
2023-06-04T18:44:29.149Z,52.45
2023-06-04T18:46:55.659Z,51.65
2023-06-04T18:49:22.980Z,52.42
2023-06-04T18:51:51.573Z,52.15
2023-06-04T18:54:18.681Z,52.22
2023-06-04T18:56:46.764Z,51.37
2023-06-04T18:59:15.022Z,52.63
2023-06-04T19:01:41.877Z,53.58
2023-06-04T19:04:09.014Z,53.05
2023-06-04T19:06:35.969Z,52.21
2023-06-04T19:09:02.993Z,53.69
2023-06-04T19:11:29.517Z,53.46
2023-06-04T19:13:56.484Z,54.09
2023-06-04T19:16:23.118Z,53.84
2023-06-04T19:18:49.792Z,54.28
2023-06-04T19:21:16.953Z,54.14
2023-06-04T19:23:44.344Z,54.40
2023-06-04T19:26:11.000Z,54.38
2023-06-04T19:28:38.940Z,54.57
2023-06-04T19:31:05.638Z,54.71
2023-06-04T19:33:33.578Z,54.81
2023-06-04T19:36:00.924Z,54.93
2023-06-04T19:38:27.297Z,55.01
2023-06-04T19:40:53.736Z,55.17
2023-06-04T19:43:21.450Z,55.07
2023-06-04T19:45:50.411Z,55.44
2023-06-04T19:48:16.942Z,55.75
2023-06-04T19:50:43.334Z,55.85
2023-06-04T19:53:09.866Z,55.90
2023-06-04T19:55:36.407Z,56.27
2023-06-04T19:58:02.815Z,56.16
2023-06-04T20:00:29.312Z,56.72
2023-06-04T20:02:56.059Z,56.85
2023-06-04T20:05:23.317Z,56.81
2023-06-04T20:07:50.143Z,56.70
2023-06-04T20:10:19.006Z,57.06
2023-06-04T20:12:45.957Z,57.47
2023-06-04T20:15:12.474Z,57.36
2023-06-04T20:17:39.166Z,57.76
2023-06-04T20:20:07.302Z,57.88
2023-06-04T20:22:34.136Z,58.54
2023-06-04T20:25:01.346Z,58.46
2023-06-04T20:27:28.238Z,58.87
2023-06-04T20:29:54.628Z,59.01
2023-06-04T20:32:22.917Z,58.54
2023-06-04T20:34:49.638Z,58.61
2023-06-04T20:37:16.452Z,58.71
2023-06-04T20:39:48.330Z,58.95
2023-06-04T20:42:14.903Z,58.93
2023-06-04T20:44:41.515Z,58.70
2023-06-04T20:47:08.218Z,59.23
2023-06-04T20:49:34.637Z,59.00
2023-06-04T20:52:01.404Z,59.19
2023-06-04T20:54:27.835Z,59.42
2023-06-04T20:56:54.330Z,59.73
2023-06-04T20:59:20.838Z,59.90
2023-06-04T21:01:48.911Z,59.77
2023-06-04T21:04:15.506Z,59.38
2023-06-04T21:06:42.424Z,60.30
2023-06-04T21:09:08.892Z,59.89
2023-06-04T21:11:35.422Z,59.78
2023-06-04T21:14:02.025Z,59.83
2023-06-04T21:16:28.529Z,59.75
2023-06-04T21:18:54.996Z,60.17
2023-06-04T21:21:21.545Z,60.08
2023-06-04T21:23:47.955Z,60.58
2023-06-04T21:26:14.417Z,60.86
2023-06-04T21:28:40.928Z,60.94
2023-06-04T21:31:07.549Z,60.75
2023-06-04T21:33:34.537Z,60.62
2023-06-04T21:36:01.020Z,61.24
2023-06-04T21:38:28.159Z,61.55
2023-06-04T21:40:54.787Z,60.79
2023-06-04T21:43:21.746Z,61.88
2023-06-04T21:45:48.927Z,62.05
2023-06-04T21:48:15.553Z,62.32
2023-06-04T21:50:42.006Z,62.71
2023-06-04T21:53:08.427Z,62.67
2023-06-04T21:55:36.678Z,62.85
2023-06-04T21:58:04.490Z,62.98
2023-06-04T22:00:31.159Z,62.85
2023-06-04T22:02:57.779Z,63.26
2023-06-04T22:05:24.417Z,63.61
2023-06-04T22:07:50.808Z,63.63
2023-06-04T22:10:17.379Z,63.89
2023-06-04T22:12:44.790Z,63.92
2023-06-04T22:15:11.489Z,63.93
2023-06-04T22:17:38.114Z,64.27
2023-06-04T22:20:05.101Z,64.21
2023-06-04T22:22:31.563Z,64.42
2023-06-04T22:24:58.087Z,64.44
2023-06-04T22:27:24.472Z,65.13
2023-06-04T22:29:51.310Z,65.16
2023-06-04T22:32:17.713Z,65.37
2023-06-04T22:34:46.230Z,65.11
2023-06-04T22:37:12.781Z,65.20
2023-06-04T22:39:39.195Z,65.61
2023-06-04T22:42:05.923Z,65.69
2023-06-04T22:44:32.339Z,65.95
2023-06-04T22:46:58.862Z,65.63
2023-06-04T22:49:25.560Z,65.85
2023-06-04T22:51:52.045Z,66.06
2023-06-04T22:54:18.978Z,66.03
2023-06-04T22:56:45.518Z,66.71
2023-06-04T22:59:11.996Z,66.50
2023-06-04T23:01:38.460Z,66.60
2023-06-04T23:04:05.237Z,66.75
2023-06-04T23:06:32.068Z,66.57
2023-06-04T23:08:58.531Z,66.93
2023-06-04T23:11:24.934Z,66.62
2023-06-04T23:13:51.656Z,66.96
2023-06-04T23:16:18.047Z,66.62
2023-06-04T23:18:44.556Z,67.16
2023-06-04T23:21:11.082Z,67.47
2023-06-04T23:23:37.620Z,67.42
2023-06-04T23:26:04.390Z,67.40
2023-06-04T23:28:30.873Z,67.45
2023-06-04T23:30:57.260Z,67.81
2023-06-04T23:33:23.656Z,67.93
2023-06-04T23:35:50.510Z,67.98
2023-06-04T23:38:17.041Z,68.08
2023-06-04T23:40:43.453Z,68.06
2023-06-04T23:43:10.045Z,68.33
2023-06-04T23:45:36.581Z,68.58
2023-06-04T23:48:03.101Z,68.68
2023-06-04T23:50:29.544Z,68.70
2023-06-04T23:52:56.258Z,68.81
2023-06-04T23:55:22.750Z,69.03
2023-06-04T23:57:49.303Z,69.04
